Nouasseur, Morocco
Current Conditions -  °F | °C
As of 7:30 PM on Thursday 25 Dec 2014 (Local Time) from GMMN Reporting Station
Few Clouds Few Clouds  
Wind Chill: 13°   Ceiling: Unl
Heat Index: 13°   Visibility: 6mi
Dew Point: 10°   Wind: 7mph
Humidity: 82%   Direction: 10°N
Pressure: 30.42"   Gusts: NA
Location:  33.37°N, 7.58°W
Report Text: GMMN 251830Z 01006KT 9999 FEW010 13/10 Q1030 NOSIG
Loading
Personal Weather Stations






























Interactive Weather Map New forecast layout! Learn more

10-Day Weather Forecast

Advertisements
Track Severe Weather on mobile